sensor_id;sensor_type;location;lat;lon;timestamp;P1;durP1;ratioP1;P2;durP2;ratioP2
4232;SDS011;2130;48.472;11.934;2023-03-23T00:01:21;18.50;;;1.30;;
4232;SDS011;2130;48.472;11.934;2023-03-23T00:04:12;18.23;;;1.10;;
4232;SDS011;2130;48.472;11.934;2023-03-23T00:06:59;18.20;;;1.20;;
4232;SDS011;2130;48.472;11.934;2023-03-23T00:09:48;18.07;;;1.40;;
4232;SDS011;2130;48.472;11.934;2023-03-23T00:12:39;18.27;;;1.20;;
4232;SDS011;2130;48.472;11.934;2023-03-23T00:15:28;18.80;;;1.30;;
4232;SDS011;2130;48.472;11.934;2023-03-23T00:18:20;17.80;;;1.20;;
4232;SDS011;2130;48.472;11.934;2023-03-23T00:21:08;18.33;;;1.50;;
4232;SDS011;2130;48.472;11.934;2023-03-23T00:23:55;18.77;;;1.17;;
4232;SDS011;2130;48.472;11.934;2023-03-23T00:26:43;18.10;;;1.13;;
4232;SDS011;2130;48.472;11.934;2023-03-23T00:29:31;17.90;;;1.13;;
4232;SDS011;2130;48.472;11.934;2023-03-23T00:32:19;18.80;;;1.30;;
4232;SDS011;2130;48.472;11.934;2023-03-23T00:35:14;18.67;;;1.20;;
4232;SDS011;2130;48.472;11.934;2023-03-23T00:38:01;18.63;;;1.40;;
4232;SDS011;2130;48.472;11.934;2023-03-23T00:40:50;18.30;;;1.40;;
4232;SDS011;2130;48.472;11.934;2023-03-23T00:43:37;18.60;;;1.30;;
4232;SDS011;2130;48.472;11.934;2023-03-23T00:46:25;18.10;;;1.30;;
4232;SDS011;2130;48.472;11.934;2023-03-23T00:49:14;18.90;;;1.43;;
4232;SDS011;2130;48.472;11.934;2023-03-23T00:52:05;18.67;;;1.50;;
4232;SDS011;2130;48.472;11.934;2023-03-23T00:54:53;19.10;;;1.40;;
4232;SDS011;2130;48.472;11.934;2023-03-23T00:57:40;18.83;;;1.40;;
4232;SDS011;2130;48.472;11.934;2023-03-23T01:00:28;18.47;;;1.30;;
4232;SDS011;2130;48.472;11.934;2023-03-23T01:03:16;19.33;;;1.60;;
4232;SDS011;2130;48.472;11.934;2023-03-23T01:06:05;18.93;;;1.40;;
4232;SDS011;2130;48.472;11.934;2023-03-23T01:09:03;21.47;;;1.80;;
4232;SDS011;2130;48.472;11.934;2023-03-23T01:11:50;19.80;;;1.53;;
4232;SDS011;2130;48.472;11.934;2023-03-23T01:14:38;19.07;;;1.40;;
4232;SDS011;2130;48.472;11.934;2023-03-23T01:17:26;20.00;;;1.50;;
4232;SDS011;2130;48.472;11.934;2023-03-23T01:20:14;21.07;;;1.50;;
4232;SDS011;2130;48.472;11.934;2023-03-23T01:23:04;18.60;;;1.40;;
4232;SDS011;2130;48.472;11.934;2023-03-23T01:25:53;18.90;;;1.50;;
4232;SDS011;2130;48.472;11.934;2023-03-23T01:28:44;22.50;;;1.70;;
4232;SDS011;2130;48.472;11.934;2023-03-23T01:31:31;18.80;;;1.33;;
4232;SDS011;2130;48.472;11.934;2023-03-23T01:34:19;18.10;;;1.23;;
4232;SDS011;2130;48.472;11.934;2023-03-23T01:37:06;20.00;;;1.50;;
4232;SDS011;2130;48.472;11.934;2023-03-23T01:39:53;18.37;;;1.33;;
4232;SDS011;2130;48.472;11.934;2023-03-23T01:42:43;19.63;;;1.50;;
4232;SDS011;2130;48.472;11.934;2023-03-23T01:45:33;18.57;;;1.43;;
4232;SDS011;2130;48.472;11.934;2023-03-23T01:48:22;19.63;;;1.70;;
4232;SDS011;2130;48.472;11.934;2023-03-23T01:51:12;22.30;;;1.60;;
4232;SDS011;2130;48.472;11.934;2023-03-23T01:54:01;18.20;;;1.27;;
4232;SDS011;2130;48.472;11.934;2023-03-23T01:56:52;18.33;;;1.30;;
4232;SDS011;2130;48.472;11.934;2023-03-23T01:59:44;19.60;;;1.60;;
4232;SDS011;2130;48.472;11.934;2023-03-23T02:02:46;19.00;;;1.60;;
4232;SDS011;2130;48.472;11.934;2023-03-23T02:05:36;19.10;;;1.60;;
4232;SDS011;2130;48.472;11.934;2023-03-23T02:08:41;18.20;;;1.27;;
4232;SDS011;2130;48.472;11.934;2023-03-23T02:11:30;21.37;;;1.60;;
4232;SDS011;2130;48.472;11.934;2023-03-23T02:14:18;17.87;;;1.10;;
4232;SDS011;2130;48.472;11.934;2023-03-23T02:17:08;18.67;;;1.30;;
4232;SDS011;2130;48.472;11.934;2023-03-23T02:20:10;18.67;;;1.30;;
4232;SDS011;2130;48.472;11.934;2023-03-23T02:23:12;18.63;;;1.50;;
4232;SDS011;2130;48.472;11.934;2023-03-23T02:26:10;18.90;;;1.50;;
4232;SDS011;2130;48.472;11.934;2023-03-23T02:29:03;18.80;;;1.30;;
4232;SDS011;2130;48.472;11.934;2023-03-23T02:32:03;18.40;;;1.23;;
4232;SDS011;2130;48.472;11.934;2023-03-23T02:34:59;18.50;;;1.40;;
4232;SDS011;2130;48.472;11.934;2023-03-23T02:37:48;19.80;;;1.60;;
4232;SDS011;2130;48.472;11.934;2023-03-23T02:40:38;18.20;;;1.30;;
4232;SDS011;2130;48.472;11.934;2023-03-23T02:43:29;19.77;;;1.60;;
4232;SDS011;2130;48.472;11.934;2023-03-23T02:46:18;19.40;;;1.67;;
4232;SDS011;2130;48.472;11.934;2023-03-23T02:49:07;18.90;;;1.40;;
4232;SDS011;2130;48.472;11.934;2023-03-23T02:51:56;19.30;;;1.50;;
4232;SDS011;2130;48.472;11.934;2023-03-23T02:54:46;18.73;;;1.30;;
4232;SDS011;2130;48.472;11.934;2023-03-23T02:57:34;19.40;;;1.30;;
4232;SDS011;2130;48.472;11.934;2023-03-23T03:00:23;18.90;;;1.30;;
4232;SDS011;2130;48.472;11.934;2023-03-23T03:03:12;19.27;;;1.53;;
4232;SDS011;2130;48.472;11.934;2023-03-23T03:06:03;18.63;;;1.50;;
4232;SDS011;2130;48.472;11.934;2023-03-23T03:08:58;18.63;;;1.47;;
4232;SDS011;2130;48.472;11.934;2023-03-23T03:11:50;18.70;;;1.40;;
4232;SDS011;2130;48.472;11.934;2023-03-23T03:14:39;19.97;;;1.50;;
4232;SDS011;2130;48.472;11.934;2023-03-23T03:17:30;19.67;;;1.63;;
4232;SDS011;2130;48.472;11.934;2023-03-23T03:20:18;19.77;;;1.60;;
4232;SDS011;2130;48.472;11.934;2023-03-23T03:23:06;19.40;;;1.80;;
4232;SDS011;2130;48.472;11.934;2023-03-23T03:25:57;18.90;;;1.63;;
4232;SDS011;2130;48.472;11.934;2023-03-23T03:28:58;18.70;;;1.40;;
4232;SDS011;2130;48.472;11.934;2023-03-23T03:31:47;18.67;;;1.40;;
4232;SDS011;2130;48.472;11.934;2023-03-23T03:34:36;19.30;;;1.50;;
4232;SDS011;2130;48.472;11.934;2023-03-23T03:37:25;18.10;;;1.10;;
4232;SDS011;2130;48.472;11.934;2023-03-23T03:40:13;18.90;;;1.50;;
4232;SDS011;2130;48.472;11.934;2023-03-23T03:43:04;18.70;;;1.60;;
4232;SDS011;2130;48.472;11.934;2023-03-23T03:45:52;19.90;;;1.50;;
4232;SDS011;2130;48.472;11.934;2023-03-23T03:48:40;18.67;;;1.40;;
4232;SDS011;2130;48.472;11.934;2023-03-23T03:51:27;18.70;;;1.30;;
4232;SDS011;2130;48.472;11.934;2023-03-23T03:54:16;19.90;;;1.60;;
4232;SDS011;2130;48.472;11.934;2023-03-23T03:57:03;18.70;;;1.30;;
4232;SDS011;2130;48.472;11.934;2023-03-23T04:00:11;19.07;;;1.50;;
4232;SDS011;2130;48.472;11.934;2023-03-23T04:03:00;18.30;;;1.23;;
4232;SDS011;2130;48.472;11.934;2023-03-23T04:06:01;18.27;;;1.20;;
4232;SDS011;2130;48.472;11.934;2023-03-23T04:08:49;19.17;;;1.67;;
4232;SDS011;2130;48.472;11.934;2023-03-23T04:11:37;19.63;;;1.83;;
4232;SDS011;2130;48.472;11.934;2023-03-23T04:14:44;18.67;;;1.50;;
4232;SDS011;2130;48.472;11.934;2023-03-23T04:17:33;19.27;;;1.40;;
4232;SDS011;2130;48.472;11.934;2023-03-23T04:20:24;19.30;;;1.50;;
4232;SDS011;2130;48.472;11.934;2023-03-23T04:23:13;18.47;;;1.50;;
4232;SDS011;2130;48.472;11.934;2023-03-23T04:26:06;18.50;;;1.60;;
4232;SDS011;2130;48.472;11.934;2023-03-23T04:28:58;19.27;;;1.40;;
4232;SDS011;2130;48.472;11.934;2023-03-23T04:31:55;19.73;;;1.90;;
4232;SDS011;2130;48.472;11.934;2023-03-23T04:34:52;18.87;;;1.60;;
4232;SDS011;2130;48.472;11.934;2023-03-23T04:37:46;20.00;;;1.30;;
4232;SDS011;2130;48.472;11.934;2023-03-23T04:40:36;19.00;;;1.67;;
4232;SDS011;2130;48.472;11.934;2023-03-23T04:43:38;23.57;;;1.67;;
4232;SDS011;2130;48.472;11.934;2023-03-23T04:46:49;19.30;;;1.50;;
4232;SDS011;2130;48.472;11.934;2023-03-23T04:49:41;20.00;;;1.80;;
4232;SDS011;2130;48.472;11.934;2023-03-23T04:52:39;19.10;;;1.30;;
4232;SDS011;2130;48.472;11.934;2023-03-23T04:55:32;19.60;;;2.00;;
4232;SDS011;2130;48.472;11.934;2023-03-23T04:58:22;18.87;;;1.60;;
4232;SDS011;2130;48.472;11.934;2023-03-23T05:01:29;19.10;;;1.77;;
4232;SDS011;2130;48.472;11.934;2023-03-23T05:04:37;19.20;;;1.50;;
4232;SDS011;2130;48.472;11.934;2023-03-23T05:07:37;18.80;;;1.47;;
4232;SDS011;2130;48.472;11.934;2023-03-23T05:10:26;18.17;;;1.20;;
4232;SDS011;2130;48.472;11.934;2023-03-23T05:13:19;19.20;;;1.90;;
4232;SDS011;2130;48.472;11.934;2023-03-23T05:16:10;19.73;;;1.73;;
4232;SDS011;2130;48.472;11.934;2023-03-23T05:18:59;22.53;;;2.00;;
4232;SDS011;2130;48.472;11.934;2023-03-23T05:21:49;24.50;;;1.43;;
4232;SDS011;2130;48.472;11.934;2023-03-23T05:24:36;18.77;;;1.77;;
4232;SDS011;2130;48.472;11.934;2023-03-23T05:27:26;21.60;;;1.80;;
4232;SDS011;2130;48.472;11.934;2023-03-23T05:30:17;18.57;;;1.50;;
4232;SDS011;2130;48.472;11.934;2023-03-23T05:33:04;19.10;;;1.50;;
4232;SDS011;2130;48.472;11.934;2023-03-23T05:36:03;18.90;;;1.40;;
4232;SDS011;2130;48.472;11.934;2023-03-23T05:39:05;18.80;;;1.27;;
4232;SDS011;2130;48.472;11.934;2023-03-23T05:42:20;18.73;;;1.30;;
4232;SDS011;2130;48.472;11.934;2023-03-23T05:45:21;19.00;;;1.50;;
4232;SDS011;2130;48.472;11.934;2023-03-23T05:48:10;18.70;;;1.40;;
4232;SDS011;2130;48.472;11.934;2023-03-23T05:50:58;17.97;;;1.30;;
4232;SDS011;2130;48.472;11.934;2023-03-23T05:53:46;19.10;;;1.70;;
4232;SDS011;2130;48.472;11.934;2023-03-23T05:56:36;18.47;;;1.27;;
4232;SDS011;2130;48.472;11.934;2023-03-23T05:59:43;18.97;;;1.60;;
4232;SDS011;2130;48.472;11.934;2023-03-23T06:02:39;18.80;;;1.37;;
4232;SDS011;2130;48.472;11.934;2023-03-23T06:05:33;18.93;;;1.40;;
4232;SDS011;2130;48.472;11.934;2023-03-23T06:08:21;18.17;;;1.27;;
4232;SDS011;2130;48.472;11.934;2023-03-23T06:11:10;18.60;;;1.30;;
4232;SDS011;2130;48.472;11.934;2023-03-23T06:14:05;18.47;;;1.30;;
4232;SDS011;2130;48.472;11.934;2023-03-23T06:16:53;18.30;;;1.30;;
4232;SDS011;2130;48.472;11.934;2023-03-23T06:19:42;18.13;;;1.23;;
4232;SDS011;2130;48.472;11.934;2023-03-23T06:22:34;17.90;;;1.30;;
4232;SDS011;2130;48.472;11.934;2023-03-23T06:25:28;19.00;;;1.40;;
4232;SDS011;2130;48.472;11.934;2023-03-23T06:28:17;17.90;;;1.10;;
4232;SDS011;2130;48.472;11.934;2023-03-23T06:31:07;18.20;;;1.20;;
4232;SDS011;2130;48.472;11.934;2023-03-23T06:33:56;18.70;;;1.20;;
4232;SDS011;2130;48.472;11.934;2023-03-23T06:36:44;19.33;;;1.60;;
4232;SDS011;2130;48.472;11.934;2023-03-23T06:39:45;18.60;;;1.40;;
4232;SDS011;2130;48.472;11.934;2023-03-23T06:42:41;18.00;;;1.30;;
4232;SDS011;2130;48.472;11.934;2023-03-23T06:46:00;18.77;;;1.50;;
4232;SDS011;2130;48.472;11.934;2023-03-23T06:49:19;18.83;;;1.50;;
4232;SDS011;2130;48.472;11.934;2023-03-23T06:52:21;18.10;;;1.43;;
4232;SDS011;2130;48.472;11.934;2023-03-23T06:55:09;18.80;;;1.40;;
4232;SDS011;2130;48.472;11.934;2023-03-23T06:57:57;18.40;;;1.50;;
4232;SDS011;2130;48.472;11.934;2023-03-23T07:00:47;17.90;;;1.40;;
4232;SDS011;2130;48.472;11.934;2023-03-23T07:03:36;18.13;;;1.23;;
4232;SDS011;2130;48.472;11.934;2023-03-23T07:06:25;17.90;;;1.57;;
4232;SDS011;2130;48.472;11.934;2023-03-23T07:09:18;18.37;;;1.33;;
4232;SDS011;2130;48.472;11.934;2023-03-23T07:12:08;17.27;;;1.33;;
4232;SDS011;2130;48.472;11.934;2023-03-23T07:15:01;18.10;;;1.40;;
4232;SDS011;2130;48.472;11.934;2023-03-23T07:17:49;18.40;;;1.27;;
4232;SDS011;2130;48.472;11.934;2023-03-23T07:20:46;17.53;;;1.43;;
4232;SDS011;2130;48.472;11.934;2023-03-23T07:23:35;16.97;;;1.20;;
4232;SDS011;2130;48.472;11.934;2023-03-23T07:26:30;17.87;;;1.37;;
4232;SDS011;2130;48.472;11.934;2023-03-23T07:29:18;20.03;;;1.63;;
4232;SDS011;2130;48.472;11.934;2023-03-23T07:32:10;17.40;;;1.40;;
4232;SDS011;2130;48.472;11.934;2023-03-23T07:34:58;17.60;;;1.40;;
4232;SDS011;2130;48.472;11.934;2023-03-23T07:38:09;18.50;;;1.50;;
4232;SDS011;2130;48.472;11.934;2023-03-23T07:40:57;17.20;;;1.37;;
4232;SDS011;2130;48.472;11.934;2023-03-23T07:43:46;18.33;;;1.53;;
4232;SDS011;2130;48.472;11.934;2023-03-23T07:46:42;19.00;;;1.60;;
4232;SDS011;2130;48.472;11.934;2023-03-23T07:49:34;17.23;;;1.60;;
4232;SDS011;2130;48.472;11.934;2023-03-23T07:52:45;17.30;;;1.50;;
4232;SDS011;2130;48.472;11.934;2023-03-23T07:55:33;18.03;;;1.47;;
4232;SDS011;2130;48.472;11.934;2023-03-23T07:58:27;16.03;;;1.30;;
4232;SDS011;2130;48.472;11.934;2023-03-23T08:01:17;16.87;;;1.50;;
4232;SDS011;2130;48.472;11.934;2023-03-23T08:04:23;16.30;;;1.30;;
4232;SDS011;2130;48.472;11.934;2023-03-23T08:07:36;16.63;;;1.37;;
4232;SDS011;2130;48.472;11.934;2023-03-23T08:10:23;15.60;;;1.20;;
4232;SDS011;2130;48.472;11.934;2023-03-23T08:13:12;15.93;;;1.40;;
4232;SDS011;2130;48.472;11.934;2023-03-23T08:16:11;16.70;;;1.53;;
4232;SDS011;2130;48.472;11.934;2023-03-23T08:19:14;15.17;;;1.20;;
4232;SDS011;2130;48.472;11.934;2023-03-23T08:22:30;15.33;;;1.47;;
4232;SDS011;2130;48.472;11.934;2023-03-23T08:25:57;15.40;;;1.37;;
4232;SDS011;2130;48.472;11.934;2023-03-23T08:28:53;15.93;;;1.30;;
4232;SDS011;2130;48.472;11.934;2023-03-23T08:31:40;14.90;;;1.10;;
4232;SDS011;2130;48.472;11.934;2023-03-23T08:34:55;16.57;;;1.50;;
4232;SDS011;2130;48.472;11.934;2023-03-23T08:38:01;14.93;;;1.37;;
4232;SDS011;2130;48.472;11.934;2023-03-23T08:41:08;14.90;;;1.07;;
4232;SDS011;2130;48.472;11.934;2023-03-23T08:44:15;14.63;;;1.40;;
4232;SDS011;2130;48.472;11.934;2023-03-23T08:47:20;14.20;;;1.30;;
4232;SDS011;2130;48.472;11.934;2023-03-23T08:50:27;14.50;;;1.30;;
4232;SDS011;2130;48.472;11.934;2023-03-23T08:53:45;16.13;;;1.50;;
4232;SDS011;2130;48.472;11.934;2023-03-23T08:56:52;13.93;;;1.20;;
4232;SDS011;2130;48.472;11.934;2023-03-23T09:00:05;13.93;;;1.13;;
4232;SDS011;2130;48.472;11.934;2023-03-23T09:03:13;13.37;;;1.30;;
4232;SDS011;2130;48.472;11.934;2023-03-23T09:06:23;15.40;;;1.20;;
4232;SDS011;2130;48.472;11.934;2023-03-23T09:09:11;13.63;;;1.13;;
4232;SDS011;2130;48.472;11.934;2023-03-23T09:11:58;13.83;;;1.20;;
4232;SDS011;2130;48.472;11.934;2023-03-23T09:14:45;14.47;;;1.20;;
4232;SDS011;2130;48.472;11.934;2023-03-23T09:17:33;11.67;;;1.03;;
4232;SDS011;2130;48.472;11.934;2023-03-23T09:20:21;12.23;;;1.03;;
4232;SDS011;2130;48.472;11.934;2023-03-23T09:23:11;12.47;;;1.20;;
4232;SDS011;2130;48.472;11.934;2023-03-23T09:25:59;11.90;;;1.17;;
4232;SDS011;2130;48.472;11.934;2023-03-23T09:28:47;13.70;;;1.27;;
4232;SDS011;2130;48.472;11.934;2023-03-23T09:31:34;13.23;;;1.13;;
4232;SDS011;2130;48.472;11.934;2023-03-23T09:34:22;12.17;;;1.17;;
4232;SDS011;2130;48.472;11.934;2023-03-23T09:37:10;11.77;;;1.00;;
4232;SDS011;2130;48.472;11.934;2023-03-23T09:40:00;11.23;;;1.20;;
4232;SDS011;2130;48.472;11.934;2023-03-23T09:43:00;10.70;;;1.20;;
4232;SDS011;2130;48.472;11.934;2023-03-23T09:45:55;12.13;;;1.30;;
4232;SDS011;2130;48.472;11.934;2023-03-23T09:48:49;11.20;;;1.20;;
4232;SDS011;2130;48.472;11.934;2023-03-23T09:51:40;10.53;;;0.93;;
4232;SDS011;2130;48.472;11.934;2023-03-23T09:54:30;14.23;;;1.10;;
4232;SDS011;2130;48.472;11.934;2023-03-23T09:57:24;12.13;;;1.13;;
4232;SDS011;2130;48.472;11.934;2023-03-23T10:00:18;12.40;;;1.10;;
4232;SDS011;2130;48.472;11.934;2023-03-23T10:03:10;10.97;;;1.10;;
4232;SDS011;2130;48.472;11.934;2023-03-23T10:06:01;11.10;;;1.20;;
4232;SDS011;2130;48.472;11.934;2023-03-23T10:08:49;11.47;;;1.20;;
4232;SDS011;2130;48.472;11.934;2023-03-23T10:11:42;9.87;;;0.90;;
4232;SDS011;2130;48.472;11.934;2023-03-23T10:14:41;11.87;;;1.30;;
4232;SDS011;2130;48.472;11.934;2023-03-23T10:17:33;11.00;;;0.90;;
4232;SDS011;2130;48.472;11.934;2023-03-23T10:20:27;9.60;;;0.90;;
4232;SDS011;2130;48.472;11.934;2023-03-23T10:23:34;10.43;;;1.07;;
4232;SDS011;2130;48.472;11.934;2023-03-23T10:26:30;11.50;;;1.17;;
4232;SDS011;2130;48.472;11.934;2023-03-23T10:29:22;10.00;;;0.90;;
4232;SDS011;2130;48.472;11.934;2023-03-23T10:32:15;10.40;;;1.00;;
4232;SDS011;2130;48.472;11.934;2023-03-23T10:35:05;9.43;;;1.00;;
4232;SDS011;2130;48.472;11.934;2023-03-23T10:37:55;10.00;;;1.10;;
4232;SDS011;2130;48.472;11.934;2023-03-23T10:40:47;9.57;;;1.17;;
4232;SDS011;2130;48.472;11.934;2023-03-23T10:43:38;9.67;;;1.10;;
4232;SDS011;2130;48.472;11.934;2023-03-23T10:46:29;11.43;;;1.10;;
4232;SDS011;2130;48.472;11.934;2023-03-23T10:49:24;10.67;;;1.13;;
4232;SDS011;2130;48.472;11.934;2023-03-23T10:52:20;10.73;;;1.30;;
4232;SDS011;2130;48.472;11.934;2023-03-23T10:55:14;9.80;;;1.10;;
4232;SDS011;2130;48.472;11.934;2023-03-23T10:58:03;9.43;;;1.00;;
4232;SDS011;2130;48.472;11.934;2023-03-23T11:00:51;10.83;;;1.20;;
4232;SDS011;2130;48.472;11.934;2023-03-23T11:03:40;9.93;;;0.90;;
4232;SDS011;2130;48.472;11.934;2023-03-23T11:06:32;11.17;;;1.10;;
4232;SDS011;2130;48.472;11.934;2023-03-23T11:09:33;9.67;;;1.17;;
4232;SDS011;2130;48.472;11.934;2023-03-23T11:12:22;10.60;;;1.07;;
4232;SDS011;2130;48.472;11.934;2023-03-23T11:15:15;11.37;;;1.00;;
4232;SDS011;2130;48.472;11.934;2023-03-23T11:18:10;9.53;;;1.10;;
4232;SDS011;2130;48.472;11.934;2023-03-23T11:20:58;9.50;;;1.10;;
4232;SDS011;2130;48.472;11.934;2023-03-23T11:23:49;9.50;;;0.90;;
4232;SDS011;2130;48.472;11.934;2023-03-23T11:26:39;9.13;;;1.00;;
4232;SDS011;2130;48.472;11.934;2023-03-23T11:29:29;13.13;;;1.00;;
4232;SDS011;2130;48.472;11.934;2023-03-23T11:32:18;9.63;;;1.10;;
4232;SDS011;2130;48.472;11.934;2023-03-23T11:35:06;10.47;;;1.00;;
4232;SDS011;2130;48.472;11.934;2023-03-23T11:38:03;9.60;;;0.90;;
4232;SDS011;2130;48.472;11.934;2023-03-23T11:40:54;9.80;;;1.00;;
4232;SDS011;2130;48.472;11.934;2023-03-23T11:43:43;9.20;;;1.10;;
4232;SDS011;2130;48.472;11.934;2023-03-23T11:46:33;9.60;;;1.00;;
4232;SDS011;2130;48.472;11.934;2023-03-23T11:49:30;9.13;;;1.10;;
4232;SDS011;2130;48.472;11.934;2023-03-23T11:52:23;9.30;;;1.00;;
4232;SDS011;2130;48.472;11.934;2023-03-23T11:55:14;11.77;;;1.20;;
4232;SDS011;2130;48.472;11.934;2023-03-23T11:58:10;10.27;;;1.10;;
4232;SDS011;2130;48.472;11.934;2023-03-23T12:01:03;11.30;;;1.20;;
4232;SDS011;2130;48.472;11.934;2023-03-23T12:07:31;9.33;;;0.90;;
4232;SDS011;2130;48.472;11.934;2023-03-23T12:10:28;9.00;;;1.00;;
4232;SDS011;2130;48.472;11.934;2023-03-23T12:13:26;9.30;;;0.90;;
4232;SDS011;2130;48.472;11.934;2023-03-23T12:16:21;9.33;;;1.00;;
4232;SDS011;2130;48.472;11.934;2023-03-23T12:19:15;9.07;;;1.03;;
4232;SDS011;2130;48.472;11.934;2023-03-23T12:22:08;8.70;;;1.10;;
4232;SDS011;2130;48.472;11.934;2023-03-23T12:25:02;8.60;;;1.03;;
4232;SDS011;2130;48.472;11.934;2023-03-23T12:31:15;10.00;;;1.13;;
4232;SDS011;2130;48.472;11.934;2023-03-23T12:34:09;9.73;;;1.10;;
4232;SDS011;2130;48.472;11.934;2023-03-23T12:37:06;8.87;;;0.90;;
4232;SDS011;2130;48.472;11.934;2023-03-23T12:40:21;9.73;;;1.00;;
4232;SDS011;2130;48.472;11.934;2023-03-23T12:43:15;8.73;;;1.00;;
4232;SDS011;2130;48.472;11.934;2023-03-23T12:46:18;10.10;;;0.97;;
4232;SDS011;2130;48.472;11.934;2023-03-23T12:49:21;9.03;;;0.90;;
4232;SDS011;2130;48.472;11.934;2023-03-23T12:52:12;9.07;;;1.20;;
4232;SDS011;2130;48.472;11.934;2023-03-23T12:55:04;8.93;;;0.90;;
4232;SDS011;2130;48.472;11.934;2023-03-23T12:57:55;9.20;;;1.00;;
4232;SDS011;2130;48.472;11.934;2023-03-23T13:00:50;9.20;;;1.17;;
4232;SDS011;2130;48.472;11.934;2023-03-23T13:03:44;8.23;;;1.13;;
4232;SDS011;2130;48.472;11.934;2023-03-23T13:06:37;8.93;;;1.00;;
4232;SDS011;2130;48.472;11.934;2023-03-23T13:09:29;9.33;;;0.93;;
4232;SDS011;2130;48.472;11.934;2023-03-23T13:12:19;8.90;;;1.00;;
4232;SDS011;2130;48.472;11.934;2023-03-23T13:15:13;9.10;;;1.00;;
4232;SDS011;2130;48.472;11.934;2023-03-23T13:18:09;9.03;;;1.10;;
4232;SDS011;2130;48.472;11.934;2023-03-23T13:21:01;8.90;;;1.20;;
4232;SDS011;2130;48.472;11.934;2023-03-23T13:23:56;9.03;;;0.93;;
4232;SDS011;2130;48.472;11.934;2023-03-23T13:26:45;8.33;;;0.90;;
4232;SDS011;2130;48.472;11.934;2023-03-23T13:29:34;8.70;;;0.90;;
4232;SDS011;2130;48.472;11.934;2023-03-23T13:32:21;8.50;;;1.00;;
4232;SDS011;2130;48.472;11.934;2023-03-23T13:35:20;8.60;;;1.00;;
4232;SDS011;2130;48.472;11.934;2023-03-23T13:38:15;9.57;;;1.10;;
4232;SDS011;2130;48.472;11.934;2023-03-23T13:41:07;8.60;;;1.00;;
4232;SDS011;2130;48.472;11.934;2023-03-23T13:44:13;9.83;;;1.00;;
4232;SDS011;2130;48.472;11.934;2023-03-23T13:47:07;8.27;;;1.00;;
4232;SDS011;2130;48.472;11.934;2023-03-23T13:49:56;9.00;;;1.00;;
4232;SDS011;2130;48.472;11.934;2023-03-23T13:52:51;8.80;;;1.20;;
4232;SDS011;2130;48.472;11.934;2023-03-23T13:55:41;8.50;;;1.00;;
4232;SDS011;2130;48.472;11.934;2023-03-23T13:58:29;8.50;;;0.97;;
4232;SDS011;2130;48.472;11.934;2023-03-23T14:01:17;10.13;;;1.10;;
4232;SDS011;2130;48.472;11.934;2023-03-23T14:04:09;8.40;;;1.23;;
4232;SDS011;2130;48.472;11.934;2023-03-23T14:07:07;9.53;;;1.20;;
4232;SDS011;2130;48.472;11.934;2023-03-23T14:09:56;8.87;;;1.00;;
4232;SDS011;2130;48.472;11.934;2023-03-23T14:12:44;9.43;;;1.10;;
4232;SDS011;2130;48.472;11.934;2023-03-23T14:15:37;9.43;;;1.00;;
4232;SDS011;2130;48.472;11.934;2023-03-23T14:18:31;8.10;;;0.90;;
4232;SDS011;2130;48.472;11.934;2023-03-23T14:21:22;8.80;;;1.13;;
4232;SDS011;2130;48.472;11.934;2023-03-23T14:24:15;8.60;;;0.80;;
4232;SDS011;2130;48.472;11.934;2023-03-23T14:27:08;9.40;;;1.10;;
4232;SDS011;2130;48.472;11.934;2023-03-23T14:29:59;9.00;;;1.03;;
4232;SDS011;2130;48.472;11.934;2023-03-23T14:32:47;8.40;;;1.10;;
4232;SDS011;2130;48.472;11.934;2023-03-23T14:35:36;8.73;;;1.20;;
4232;SDS011;2130;48.472;11.934;2023-03-23T14:38:24;8.73;;;1.07;;
4232;SDS011;2130;48.472;11.934;2023-03-23T14:41:17;8.37;;;1.00;;
4232;SDS011;2130;48.472;11.934;2023-03-23T14:44:06;8.27;;;1.00;;
4232;SDS011;2130;48.472;11.934;2023-03-23T14:46:57;8.47;;;0.90;;
4232;SDS011;2130;48.472;11.934;2023-03-23T14:49:45;9.57;;;1.10;;
4232;SDS011;2130;48.472;11.934;2023-03-23T14:52:33;8.97;;;0.90;;
4232;SDS011;2130;48.472;11.934;2023-03-23T14:55:21;8.10;;;1.00;;
4232;SDS011;2130;48.472;11.934;2023-03-23T14:58:12;8.73;;;0.90;;
4232;SDS011;2130;48.472;11.934;2023-03-23T15:01:01;8.00;;;1.07;;
4232;SDS011;2130;48.472;11.934;2023-03-23T15:03:52;9.80;;;1.00;;
4232;SDS011;2130;48.472;11.934;2023-03-23T15:06:42;9.53;;;1.20;;
4232;SDS011;2130;48.472;11.934;2023-03-23T15:09:31;8.50;;;0.90;;
4232;SDS011;2130;48.472;11.934;2023-03-23T15:12:20;9.80;;;1.10;;
4232;SDS011;2130;48.472;11.934;2023-03-23T15:18:22;9.30;;;1.00;;
4232;SDS011;2130;48.472;11.934;2023-03-23T15:21:20;12.20;;;1.17;;
4232;SDS011;2130;48.472;11.934;2023-03-23T15:24:18;9.50;;;0.93;;
4232;SDS011;2130;48.472;11.934;2023-03-23T15:27:12;8.47;;;1.00;;
4232;SDS011;2130;48.472;11.934;2023-03-23T15:30:12;8.37;;;1.00;;
4232;SDS011;2130;48.472;11.934;2023-03-23T15:33:03;9.03;;;1.00;;
4232;SDS011;2130;48.472;11.934;2023-03-23T15:35:51;9.47;;;1.10;;
4232;SDS011;2130;48.472;11.934;2023-03-23T15:38:42;10.23;;;0.90;;
4232;SDS011;2130;48.472;11.934;2023-03-23T15:41:31;8.77;;;0.90;;
4232;SDS011;2130;48.472;11.934;2023-03-23T15:44:21;8.17;;;0.90;;
4232;SDS011;2130;48.472;11.934;2023-03-23T15:47:14;9.17;;;1.00;;
4232;SDS011;2130;48.472;11.934;2023-03-23T15:50:04;8.93;;;1.10;;
4232;SDS011;2130;48.472;11.934;2023-03-23T15:52:56;8.87;;;1.20;;
4232;SDS011;2130;48.472;11.934;2023-03-23T15:55:45;9.23;;;1.37;;
4232;SDS011;2130;48.472;11.934;2023-03-23T15:58:33;9.43;;;1.37;;
4232;SDS011;2130;48.472;11.934;2023-03-23T16:01:23;8.97;;;0.90;;
4232;SDS011;2130;48.472;11.934;2023-03-23T16:04:13;9.03;;;1.20;;
4232;SDS011;2130;48.472;11.934;2023-03-23T16:07:03;8.77;;;1.00;;
4232;SDS011;2130;48.472;11.934;2023-03-23T16:09:53;9.10;;;0.97;;
4232;SDS011;2130;48.472;11.934;2023-03-23T16:12:42;9.73;;;1.03;;
4232;SDS011;2130;48.472;11.934;2023-03-23T16:15:31;10.10;;;1.13;;
4232;SDS011;2130;48.472;11.934;2023-03-23T16:18:20;9.40;;;1.20;;
4232;SDS011;2130;48.472;11.934;2023-03-23T16:21:09;10.23;;;1.20;;
4232;SDS011;2130;48.472;11.934;2023-03-23T16:23:57;9.17;;;1.07;;
4232;SDS011;2130;48.472;11.934;2023-03-23T16:26:46;8.83;;;1.07;;
4232;SDS011;2130;48.472;11.934;2023-03-23T16:29:35;10.50;;;1.03;;
4232;SDS011;2130;48.472;11.934;2023-03-23T16:32:44;11.00;;;1.30;;
4232;SDS011;2130;48.472;11.934;2023-03-23T16:35:33;9.40;;;1.13;;
4232;SDS011;2130;48.472;11.934;2023-03-23T16:38:22;9.30;;;0.90;;
4232;SDS011;2130;48.472;11.934;2023-03-23T16:41:10;8.90;;;1.00;;
4232;SDS011;2130;48.472;11.934;2023-03-23T16:43:58;9.93;;;1.10;;
4232;SDS011;2130;48.472;11.934;2023-03-23T16:46:49;9.70;;;1.20;;
4232;SDS011;2130;48.472;11.934;2023-03-23T16:49:38;10.00;;;1.07;;
4232;SDS011;2130;48.472;11.934;2023-03-23T16:52:26;9.30;;;1.00;;
4232;SDS011;2130;48.472;11.934;2023-03-23T16:55:15;9.43;;;1.00;;
4232;SDS011;2130;48.472;11.934;2023-03-23T16:58:04;9.07;;;1.13;;
4232;SDS011;2130;48.472;11.934;2023-03-23T17:01:03;10.30;;;1.10;;
4232;SDS011;2130;48.472;11.934;2023-03-23T17:03:53;9.47;;;1.00;;
4232;SDS011;2130;48.472;11.934;2023-03-23T17:06:42;9.50;;;1.10;;
4232;SDS011;2130;48.472;11.934;2023-03-23T17:09:32;10.60;;;1.00;;
4232;SDS011;2130;48.472;11.934;2023-03-23T17:12:20;10.40;;;1.00;;
4232;SDS011;2130;48.472;11.934;2023-03-23T17:15:09;10.13;;;1.10;;
4232;SDS011;2130;48.472;11.934;2023-03-23T17:17:58;10.47;;;0.90;;
4232;SDS011;2130;48.472;11.934;2023-03-23T17:20:49;9.50;;;1.03;;
4232;SDS011;2130;48.472;11.934;2023-03-23T17:23:39;10.00;;;1.00;;
4232;SDS011;2130;48.472;11.934;2023-03-23T17:26:27;10.90;;;1.33;;
4232;SDS011;2130;48.472;11.934;2023-03-23T17:29:16;12.00;;;1.20;;
4232;SDS011;2130;48.472;11.934;2023-03-23T17:32:05;10.77;;;1.00;;
4232;SDS011;2130;48.472;11.934;2023-03-23T17:34:53;10.50;;;1.17;;
4232;SDS011;2130;48.472;11.934;2023-03-23T17:37:43;10.30;;;1.20;;